Terminal Aerodrome Forecast
Issued by NWS

Current Version | Previous Version | Graphics & Text | Print | Product List | Glossary On
Versions: 1 2 3 4 5 6 7 8 9 10 11 12 13 14 15 16 17 18 19 20 21
000
FTUS41 KILN 111144
TAFLCK
TAF
KLCK 111144Z 1112/1212 VRB03KT P6SM OVC025
     FM111700 17008KT P6SM BKN080 OVC150
     FM120600 23010KT P6SM SCT015 OVC100
     FM120900 29014G22KT P6SM -FZDZ OVC009
     FM121100 30020G30KT P6SM VCSH OVC012=

USA.gov is the U.S. government's official web portal to all federal, state and local government web resources and services.